Time;durP1;ratioP1;P1;durP2;ratioP2;P2;SDS_P1;SDS_P2;PMS_P1;PMS_P2;Temp;Humidity;BMP_temperature;BMP_pressure;BME280_temperature;BME280_humidity;BME280_pressure;Samples;Min_cycle;Max_cycle;Signal;HPM_P1;HPM_P2
2021/09/21 00:00:43;;;;;;;6.30;5.30;;;13.80;99.90;;;;;;4993679;28;20577;-69
2021/09/21 00:03:09;;;;;;;6.67;6.03;;;13.80;99.90;;;;;;4993510;28;20900;-68
2021/09/21 00:05:36;;;;;;;9.50;4.27;;;13.70;99.90;;;;;;4978399;28;20183;-72
2021/09/21 00:08:02;;;;;;;5.57;4.47;;;13.70;99.90;;;;;;4973688;28;20933;-72
2021/09/21 00:10:27;;;;;;;6.60;5.40;;;13.70;99.90;;;;;;4973884;28;20436;-70
2021/09/21 00:12:53;;;;;;;6.40;5.00;;;13.80;99.90;;;;;;4973999;28;20236;-72
2021/09/21 00:15:20;;;;;;;6.97;4.33;;;13.70;99.90;;;;;;4974094;28;20215;-69
2021/09/21 00:17:48;;;;;;;4.97;4.57;;;13.70;99.90;;;;;;4973583;28;20179;-71
2021/09/21 00:20:16;;;;;;;5.33;4.73;;;13.70;99.90;;;;;;4975017;28;20776;-69
2021/09/21 00:22:42;;;;;;;4.90;4.50;;;13.60;99.90;;;;;;4973954;28;20548;-70
2021/09/21 00:25:09;;;;;;;5.90;4.13;;;13.60;99.90;;;;;;4974853;28;20420;-70
2021/09/21 00:27:35;;;;;;;4.77;4.30;;;13.60;99.90;;;;;;4977029;28;20182;-69
2021/09/21 00:30:02;;;;;;;5.03;4.50;;;13.60;99.90;;;;;;4977477;28;20784;-69
2021/09/21 00:32:28;;;;;;;7.43;5.30;;;13.60;99.90;;;;;;4977503;28;20657;-72
2021/09/21 00:34:54;;;;;;;8.27;5.83;;;13.50;99.90;;;;;;4990370;28;20575;-70
2021/09/21 00:37:20;;;;;;;4.87;4.43;;;13.60;99.90;;;;;;4996450;28;20422;-71
2021/09/21 00:39:47;;;;;;;7.07;4.80;;;13.60;99.90;;;;;;4979195;28;20282;-70
2021/09/21 00:42:15;;;;;;;5.73;5.13;;;13.60;99.90;;;;;;4996704;28;20460;-71
2021/09/21 00:44:42;;;;;;;9.23;5.10;;;13.60;99.90;;;;;;4996787;28;20408;-70
2021/09/21 00:47:10;;;;;;;7.93;5.73;;;13.60;99.90;;;;;;4996255;28;20415;-71
2021/09/21 00:49:36;;;;;;;5.77;4.60;;;13.60;99.90;;;;;;4983202;28;20796;-72
2021/09/21 00:52:03;;;;;;;8.30;6.30;;;13.60;99.90;;;;;;4976823;28;20440;-72
2021/09/21 00:54:29;;;;;;;4.90;4.43;;;13.60;99.90;;;;;;4959558;28;20931;-71
2021/09/21 00:56:56;;;;;;;7.00;5.30;;;13.60;99.90;;;;;;4976528;28;20484;-71
2021/09/21 00:59:23;;;;;;;5.87;5.20;;;13.60;99.90;;;;;;4976782;28;20445;-73
2021/09/21 01:01:48;;;;;;;7.73;5.70;;;13.60;99.90;;;;;;4959651;28;20462;-70
2021/09/21 01:04:17;;;;;;;4.80;4.23;;;13.60;99.90;;;;;;4988313;28;20766;-70
2021/09/21 01:06:43;;;;;;;5.23;4.10;;;13.60;99.90;;;;;;4978338;28;20234;-69
2021/09/21 01:09:17;;;;;;;6.07;4.97;;;13.60;99.90;;;;;;4996148;28;20433;-70
2021/09/21 01:11:46;;;;;;;5.00;4.40;;;13.50;99.90;;;;;;4996262;28;20185;-69
2021/09/21 01:14:11;;;;;;;5.27;4.33;;;13.60;99.90;;;;;;4996245;28;20417;-72
2021/09/21 01:16:37;;;;;;;7.07;4.77;;;13.60;99.90;;;;;;4995897;28;20418;-70
2021/09/21 01:19:04;;;;;;;5.30;4.80;;;13.60;99.90;;;;;;4983414;28;20203;-73
2021/09/21 01:21:30;;;;;;;5.00;4.50;;;13.60;99.90;;;;;;4977533;28;20219;-70
2021/09/21 01:23:56;;;;;;;5.83;4.33;;;13.60;99.90;;;;;;4976410;28;20602;-71
2021/09/21 01:26:23;;;;;;;5.33;4.83;;;13.60;99.90;;;;;;4976447;28;20534;-70
2021/09/21 01:28:50;;;;;;;5.20;4.60;;;13.60;99.90;;;;;;4976042;28;20983;-72
2021/09/21 01:31:17;;;;;;;6.00;4.13;;;13.60;99.90;;;;;;4976533;28;20433;-73
2021/09/21 01:33:49;;;;;;;4.80;4.00;;;13.60;99.90;;;;;;4983244;28;20430;-68
2021/09/21 01:36:17;;;;;;;5.73;5.10;;;13.60;99.90;;;;;;4994995;28;20503;-73
2021/09/21 01:38:46;;;;;;;5.37;4.87;;;13.60;99.90;;;;;;4994753;28;20925;-70
2021/09/21 01:41:13;;;;;;;6.63;5.97;;;13.60;99.90;;;;;;4995587;28;20517;-74
2021/09/21 01:43:45;;;;;;;5.53;4.47;;;13.60;99.90;;;;;;4995533;28;20414;-71
2021/09/21 01:46:22;;;;;;;5.70;4.77;;;13.60;99.90;;;;;;4995625;28;20395;-68
2021/09/21 01:48:48;;;;;;;5.70;5.20;;;13.60;99.90;;;;;;4984532;28;20446;-70
2021/09/21 01:51:18;;;;;;;4.07;3.60;;;13.60;99.90;;;;;;4975921;28;20757;-70
2021/09/21 01:54:03;;;;;;;6.07;5.10;;;13.60;99.90;;;;;;4976063;28;20395;-70
2021/09/21 01:59:13;;;;;;;6.23;5.20;;;13.60;99.90;;;;;;4975925;28;20793;-71
2021/09/21 02:01:39;;;;;;;4.23;3.90;;;13.60;99.90;;;;;;4975755;28;20436;-71
2021/09/21 02:04:08;;;;;;;5.77;5.17;;;13.60;99.90;;;;;;4989350;28;20277;-71
2021/09/21 02:06:37;;;;;;;4.57;4.17;;;13.60;99.90;;;;;;4994454;28;20585;-68
2021/09/21 02:09:04;;;;;;;5.17;4.67;;;13.60;99.90;;;;;;4994958;28;20792;-71
2021/09/21 02:11:30;;;;;;;4.73;4.30;;;13.70;99.90;;;;;;4994862;28;20757;-70
2021/09/21 02:13:57;;;;;;;4.60;4.20;;;13.70;99.90;;;;;;4994956;28;20380;-69
2021/09/21 02:16:27;;;;;;;5.57;4.90;;;13.70;99.90;;;;;;4995040;28;20655;-70
2021/09/21 02:18:54;;;;;;;5.07;3.70;;;13.70;99.90;;;;;;4992267;28;20443;-68
2021/09/21 02:21:20;;;;;;;4.90;4.50;;;13.70;99.90;;;;;;4994887;28;20827;-70
2021/09/21 02:23:47;;;;;;;3.93;3.53;;;13.70;99.90;;;;;;4994687;28;20764;-73
2021/09/21 02:26:13;;;;;;;7.13;4.27;;;13.70;99.90;;;;;;4994883;28;20771;-69
2021/09/21 02:28:39;;;;;;;6.10;4.57;;;13.70;99.90;;;;;;4991798;28;20437;-70
2021/09/21 02:31:05;;;;;;;4.10;3.70;;;13.70;99.90;;;;;;4975280;28;20927;-72
2021/09/21 02:33:31;;;;;;;4.10;3.70;;;13.70;99.90;;;;;;4975327;28;20534;-69
2021/09/21 02:35:56;;;;;;;6.07;4.17;;;13.70;99.90;;;;;;4975201;28;20381;-69
2021/09/21 02:38:22;;;;;;;4.23;3.83;;;13.60;99.90;;;;;;4974765;28;20233;-70
2021/09/21 02:40:48;;;;;;;5.93;3.87;;;13.60;99.90;;;;;;4975168;28;20179;-71
2021/09/21 02:43:14;;;;;;;5.77;3.83;;;13.60;99.90;;;;;;4976011;28;20453;-71
2021/09/21 02:45:39;;;;;;;5.10;4.33;;;13.60;99.90;;;;;;4994455;28;20181;-71
2021/09/21 02:48:05;;;;;;;5.20;4.23;;;13.40;99.90;;;;;;4993614;28;20170;-71
2021/09/21 02:50:31;;;;;;;4.80;4.40;;;13.50;99.90;;;;;;4994072;28;20288;-69
2021/09/21 02:52:57;;;;;;;5.50;4.93;;;13.40;99.90;;;;;;4994789;28;20165;-70
2021/09/21 02:55:22;;;;;;;7.47;5.10;;;13.40;99.90;;;;;;4976713;28;20593;-70
2021/09/21 02:57:48;;;;;;;6.20;5.23;;;13.40;99.90;;;;;;4994045;28;20180;-71
2021/09/21 03:00:19;;;;;;;5.33;4.23;;;13.40;99.90;;;;;;4974956;28;20234;-69
2021/09/21 03:02:45;;;;;;;7.47;4.63;;;13.40;99.90;;;;;;4974529;28;20225;-72
2021/09/21 03:05:15;;;;;;;5.50;4.90;;;13.30;99.90;;;;;;4974795;28;20405;-72
2021/09/21 03:07:46;;;;;;;5.40;4.90;;;13.30;99.90;;;;;;4974457;28;20415;-72
2021/09/21 03:17:51;;;;;;;5.43;4.90;;;13.20;99.90;;;;;;4975091;28;20204;-72
2021/09/21 03:20:17;;;;;;;12.77;5.03;;;13.20;99.90;;;;;;4955131;28;20397;-70
2021/09/21 03:22:43;;;;;;;8.70;5.50;;;13.10;99.90;;;;;;4955164;29;20442;-73
2021/09/21 03:25:11;;;;;;;7.00;6.30;;;13.10;99.90;;;;;;4955219;29;20442;-70
2021/09/21 03:27:37;;;;;;;5.13;4.13;;;13.00;99.90;;;;;;4954744;29;20175;-70
2021/09/21 03:30:03;;;;;;;7.30;5.67;;;13.00;99.90;;;;;;4954930;28;20880;-70
2021/09/21 03:32:29;;;;;;;5.87;4.90;;;13.00;99.90;;;;;;4970284;28;20438;-71
2021/09/21 03:34:55;;;;;;;5.17;4.60;;;13.00;99.90;;;;;;4974208;28;20931;-69
2021/09/21 03:37:20;;;;;;;5.83;5.23;;;13.00;99.90;;;;;;4974074;28;20549;-72
2021/09/21 03:39:46;;;;;;;8.03;5.00;;;13.00;99.90;;;;;;4974231;28;20576;-70
2021/09/21 03:42:12;;;;;;;10.40;6.43;;;12.90;99.90;;;;;;4974251;28;20209;-73
2021/09/21 03:44:39;;;;;;;6.50;5.10;;;12.90;99.90;;;;;;4974306;28;20413;-71
2021/09/21 03:47:04;;;;;;;6.80;6.10;;;12.80;99.90;;;;;;4987421;28;20897;-71
2021/09/21 03:49:30;;;;;;;6.10;5.50;;;12.80;99.90;;;;;;4993338;28;20428;-70
2021/09/21 03:51:56;;;;;;;7.67;6.57;;;12.80;99.90;;;;;;4993951;28;20191;-71
2021/09/21 03:54:22;;;;;;;7.33;5.37;;;12.90;99.90;;;;;;4993589;28;20437;-73
2021/09/21 03:56:48;;;;;;;5.57;5.07;;;12.90;99.90;;;;;;4993312;28;20465;-70
2021/09/21 03:59:14;;;;;;;7.10;5.50;;;12.90;99.90;;;;;;4985823;28;20481;-73
2021/09/21 04:01:39;;;;;;;6.07;5.50;;;12.90;99.90;;;;;;4977315;28;20202;-71
2021/09/21 04:04:06;;;;;;;7.13;6.23;;;12.90;99.90;;;;;;4977921;28;20631;-73
2021/09/21 04:06:33;;;;;;;5.37;4.83;;;13.00;99.90;;;;;;4960236;28;20190;-71
2021/09/21 04:08:59;;;;;;;8.73;5.00;;;12.90;99.90;;;;;;4977717;28;20478;-71
2021/09/21 04:11:24;;;;;;;7.40;5.47;;;12.90;99.90;;;;;;4978012;28;20392;-70
2021/09/21 04:13:50;;;;;;;4.80;4.40;;;12.90;99.90;;;;;;4983801;28;20177;-71
2021/09/21 04:16:17;;;;;;;6.30;5.33;;;12.90;99.90;;;;;;4997443;28;20188;-70
2021/09/21 04:18:43;;;;;;;7.40;4.73;;;12.90;99.90;;;;;;4979106;28;20452;-71
2021/09/21 04:21:09;;;;;;;7.30;6.07;;;12.90;99.90;;;;;;4997009;28;20552;-72
2021/09/21 04:23:35;;;;;;;5.67;5.17;;;12.90;99.90;;;;;;4996993;28;20498;-70
2021/09/21 04:26:00;;;;;;;5.13;4.70;;;12.90;99.90;;;;;;4997050;28;20172;-70
2021/09/21 04:28:26;;;;;;;5.13;4.70;;;12.80;99.90;;;;;;4991268;28;20202;-70
2021/09/21 04:30:52;;;;;;;5.23;4.73;;;12.80;99.90;;;;;;4977216;28;20201;-70
2021/09/21 04:33:19;;;;;;;6.67;5.40;;;12.70;99.90;;;;;;4977414;28;20320;-70
2021/09/21 04:35:45;;;;;;;5.40;4.50;;;12.70;99.90;;;;;;4996302;28;20779;-71
2021/09/21 04:38:11;;;;;;;7.50;4.80;;;12.70;99.90;;;;;;4996415;28;20462;-69
2021/09/21 04:40:38;;;;;;;5.30;4.77;;;12.70;99.90;;;;;;4996786;28;20842;-72
2021/09/21 04:43:05;;;;;;;6.00;5.50;;;12.60;99.90;;;;;;4996768;28;20469;-71
2021/09/21 04:45:32;;;;;;;7.40;4.57;;;12.60;99.90;;;;;;4996650;28;20564;-69
2021/09/21 04:47:58;;;;;;;6.10;5.33;;;12.50;99.90;;;;;;4996295;28;20418;-71
2021/09/21 04:50:24;;;;;;;4.83;4.33;;;12.50;99.90;;;;;;4977225;28;20543;-70
2021/09/21 04:52:49;;;;;;;6.00;5.27;;;12.50;99.90;;;;;;4976785;28;20177;-71
2021/09/21 04:55:15;;;;;;;5.50;5.00;;;12.40;99.90;;;;;;4977165;28;20520;-69
2021/09/21 04:57:44;;;;;;;8.13;5.27;;;12.40;99.90;;;;;;4976658;28;20201;-72
2021/09/21 05:00:10;;;;;;;6.43;5.10;;;12.40;99.90;;;;;;4976836;28;20439;-72
2021/09/21 05:02:36;;;;;;;6.70;4.57;;;12.50;99.90;;;;;;4977087;28;20209;-69
2021/09/21 05:05:04;;;;;;;7.80;6.10;;;12.50;99.90;;;;;;4976724;28;20434;-70
2021/09/21 05:07:30;;;;;;;8.30;6.30;;;12.50;99.90;;;;;;4995973;28;20379;-70
2021/09/21 05:10:01;;;;;;;5.43;4.93;;;12.50;99.90;;;;;;4978380;28;20422;-70
2021/09/21 05:12:29;;;;;;;6.97;5.87;;;12.40;99.90;;;;;;4957182;28;20281;-71
2021/09/21 05:14:55;;;;;;;7.82;6.03;;;12.50;99.90;;;;;;4957240;29;20834;-72
2021/09/21 05:17:21;;;;;;;6.40;5.30;;;12.40;99.90;;;;;;4956739;29;20268;-72
2021/09/21 05:19:47;;;;;;;8.07;5.00;;;12.40;99.90;;;;;;4975386;28;20244;-71
2021/09/21 05:22:19;;;;;;;10.70;5.90;;;12.40;99.90;;;;;;4976303;28;20204;-71
2021/09/21 05:24:48;;;;;;;11.00;5.77;;;12.40;99.90;;;;;;4976342;28;20397;-71
2021/09/21 05:27:13;;;;;;;7.15;6.45;;;12.50;99.90;;;;;;4976203;28;20932;-71
2021/09/21 05:29:41;;;;;;;6.60;5.23;;;12.40;99.90;;;;;;4976347;28;20198;-69
2021/09/21 05:32:07;;;;;;;5.87;5.23;;;12.40;99.90;;;;;;4976639;28;20189;-71
2021/09/21 05:34:35;;;;;;;5.43;4.93;;;12.40;99.90;;;;;;4976192;28;20435;-71
2021/09/21 05:37:01;;;;;;;7.70;5.60;;;12.40;99.90;;;;;;4974408;28;20205;-69
2021/09/21 05:39:27;;;;;;;5.57;5.00;;;12.40;99.90;;;;;;4974588;28;20437;-70
2021/09/21 05:41:53;;;;;;;8.30;5.83;;;12.40;99.90;;;;;;4975649;28;20808;-70
2021/09/21 05:44:18;;;;;;;7.33;6.63;;;12.50;99.90;;;;;;4975844;28;20259;-71
2021/09/21 05:46:45;;;;;;;9.23;5.60;;;12.50;99.90;;;;;;4975521;28;20173;-70
2021/09/21 05:49:11;;;;;;;6.10;5.60;;;12.50;99.90;;;;;;4978417;28;20466;-69
2021/09/21 05:51:37;;;;;;;5.50;4.73;;;12.50;99.90;;;;;;4974952;28;20854;-72
2021/09/21 05:54:02;;;;;;;6.97;6.30;;;12.50;99.90;;;;;;4974267;28;20170;-70
2021/09/21 05:56:28;;;;;;;7.30;4.60;;;12.50;99.90;;;;;;4974426;28;20175;-71
2021/09/21 05:58:54;;;;;;;7.80;4.57;;;12.60;99.90;;;;;;4975476;28;20205;-70
2021/09/21 06:01:20;;;;;;;5.90;4.77;;;12.60;99.90;;;;;;4975072;28;20217;-67
2021/09/21 06:03:46;;;;;;;6.80;6.20;;;12.70;99.90;;;;;;4968283;28;20928;-68
2021/09/21 06:06:11;;;;;;;8.90;5.90;;;12.80;99.90;;;;;;4969994;28;20428;-68
2021/09/21 06:08:37;;;;;;;6.93;5.33;;;12.80;99.90;;;;;;4970526;28;20197;-66
2021/09/21 06:11:03;;;;;;;4.67;4.27;;;12.80;99.90;;;;;;4970652;28;20664;-65
2021/09/21 06:13:28;;;;;;;5.10;4.60;;;12.90;99.90;;;;;;4970789;28;20176;-66
2021/09/21 06:15:54;;;;;;;5.67;4.13;;;13.10;99.90;;;;;;4972926;28;20582;-70
2021/09/21 06:18:20;;;;;;;5.10;4.60;;;13.20;99.90;;;;;;4964643;28;20192;-67
2021/09/21 06:20:46;;;;;;;4.90;4.50;;;13.30;99.90;;;;;;4979518;28;20190;-68
2021/09/21 06:23:12;;;;;;;4.60;4.20;;;13.40;99.90;;;;;;4973968;28;20187;-68
2021/09/21 06:25:38;;;;;;;6.73;5.10;;;13.40;99.90;;;;;;4971979;28;20425;-68
2021/09/21 06:28:04;;;;;;;6.17;5.30;;;13.50;99.90;;;;;;4945075;28;20430;-68
2021/09/21 06:30:30;;;;;;;7.80;5.70;;;13.50;99.90;;;;;;4965820;28;20494;-68
2021/09/21 06:32:56;;;;;;;5.67;4.53;;;13.60;99.90;;;;;;4949617;28;20790;-69
2021/09/21 06:35:22;;;;;;;5.40;4.90;;;13.60;99.90;;;;;;4974064;28;20261;-70
2021/09/21 06:37:48;;;;;;;5.83;4.63;;;13.70;99.90;;;;;;4971940;28;20594;-68
2021/09/21 06:41:03;;;;;;;6.13;5.30;;;13.80;99.90;;;;;;4962056;28;20478;-69
2021/09/21 06:43:29;;;;;;;7.20;5.07;;;13.80;99.90;;;;;;4965619;28;20437;-67
2021/09/21 06:45:56;;;;;;;5.60;4.93;;;13.80;99.90;;;;;;4964180;28;20469;-69
2021/09/21 06:48:23;;;;;;;4.70;4.30;;;13.90;99.90;;;;;;4968890;28;20215;-70
2021/09/21 06:50:48;;;;;;;7.40;5.57;;;13.90;99.90;;;;;;4967357;28;20441;-68
2021/09/21 06:53:14;;;;;;;4.97;4.17;;;14.00;99.90;;;;;;4963903;28;20449;-67
2021/09/21 06:55:40;;;;;;;5.73;4.40;;;13.90;99.90;;;;;;4969551;28;20290;-67
2021/09/21 06:58:05;;;;;;;5.67;4.53;;;14.00;99.90;;;;;;4943879;28;20288;-68
2021/09/21 07:00:35;;;;;;;5.53;5.03;;;14.10;99.90;;;;;;4969892;28;20226;-68
2021/09/21 07:03:01;;;;;;;5.60;4.57;;;14.20;99.90;;;;;;4963634;28;20235;-71
2021/09/21 07:05:26;;;;;;;5.00;4.60;;;14.40;99.90;;;;;;4968143;28;20522;-68
2021/09/21 07:07:52;;;;;;;5.77;5.10;;;14.70;99.90;;;;;;4970867;28;20363;-66
2021/09/21 07:10:19;;;;;;;5.50;4.50;;;15.10;99.90;;;;;;4957089;28;20207;-66
2021/09/21 07:12:46;;;;;;;4.93;4.53;;;15.40;99.90;;;;;;4963596;28;20893;-68
2021/09/21 07:15:12;;;;;;;5.00;4.57;;;15.80;99.90;;;;;;4974406;28;20438;-69
2021/09/21 07:17:38;;;;;;;6.60;4.93;;;16.20;99.90;;;;;;4993524;28;20711;-65
2021/09/21 07:20:06;;;;;;;4.80;4.40;;;16.50;99.90;;;;;;4993726;28;20512;-68
2021/09/21 07:22:32;;;;;;;6.97;4.40;;;16.70;99.90;;;;;;4993780;28;20462;-70
2021/09/21 07:24:58;;;;;;;5.10;4.03;;;16.60;99.90;;;;;;4993876;28;20425;-68
2021/09/21 07:27:24;;;;;;;3.60;3.30;;;16.70;99.90;;;;;;4993544;28;20771;-69
2021/09/21 07:29:50;;;;;;;4.97;4.50;;;16.60;99.90;;;;;;4993713;28;20424;-70
2021/09/21 07:32:16;;;;;;;5.03;4.50;;;16.60;99.90;;;;;;4993831;28;20444;-68
2021/09/21 07:34:41;;;;;;;5.27;4.57;;;16.60;99.90;;;;;;4994019;28;20255;-71
2021/09/21 07:37:09;;;;;;;4.90;4.50;;;16.80;99.90;;;;;;4997744;28;20787;-67
2021/09/21 07:39:35;;;;;;;4.20;3.80;;;17.00;99.90;;;;;;4978511;28;20197;-68
2021/09/21 07:42:02;;;;;;;5.30;3.90;;;17.40;99.90;;;;;;4997716;28;21049;-70
2021/09/21 07:44:27;;;;;;;4.53;4.13;;;17.60;99.90;;;;;;4997797;28;20449;-69
2021/09/21 07:46:53;;;;;;;5.87;4.33;;;17.90;99.90;;;;;;4997281;28;20788;-69
2021/09/21 07:49:19;;;;;;;5.20;3.70;;;18.40;99.20;;;;;;4997484;28;20599;-68
2021/09/21 07:51:45;;;;;;;5.50;4.30;;;19.10;97.50;;;;;;4997194;28;20658;-71
2021/09/21 07:54:11;;;;;;;4.03;3.73;;;19.90;96.20;;;;;;4997215;28;20763;-67
2021/09/21 07:56:37;;;;;;;4.17;3.77;;;20.70;95.30;;;;;;4997251;28;20417;-70
2021/09/21 07:59:05;;;;;;;5.07;4.13;;;21.50;94.30;;;;;;4997355;28;20552;-73
2021/09/21 08:01:30;;;;;;;4.37;3.97;;;22.50;92.40;;;;;;4995408;28;20466;-68
2021/09/21 08:03:56;;;;;;;4.17;3.77;;;23.30;90.50;;;;;;4976344;28;20400;-70
2021/09/21 08:06:23;;;;;;;4.20;3.80;;;23.90;88.40;;;;;;4977972;28;20198;-72
2021/09/21 08:08:49;;;;;;;4.00;3.53;;;24.40;83.90;;;;;;4989757;28;20443;-70
2021/09/21 08:11:15;;;;;;;6.33;4.23;;;24.70;82.50;;;;;;4966227;28;20566;-69
2021/09/21 08:13:41;;;;;;;5.47;4.37;;;25.10;81.10;;;;;;4973756;28;20572;-71
2021/09/21 08:16:07;;;;;;;5.00;4.60;;;25.60;79.60;;;;;;4964211;28;20173;-66
2021/09/21 08:18:33;;;;;;;5.63;5.13;;;25.70;75.50;;;;;;4969903;28;20266;-70
2021/09/21 08:20:59;;;;;;;4.63;4.23;;;25.40;75.00;;;;;;4968110;28;20419;-73
2021/09/21 08:23:25;;;;;;;4.60;4.20;;;24.50;76.30;;;;;;4967510;28;20188;-70
2021/09/21 08:25:51;;;;;;;4.30;3.70;;;24.20;76.00;;;;;;4969949;28;20661;-70
2021/09/21 08:28:16;;;;;;;4.30;3.90;;;24.20;75.00;;;;;;4965336;28;21224;-68
2021/09/21 08:30:42;;;;;;;4.83;4.27;;;24.40;72.30;;;;;;4973140;28;20482;-71
2021/09/21 08:33:08;;;;;;;3.90;3.60;;;24.20;71.10;;;;;;4970715;28;20243;-67
2021/09/21 08:35:34;;;;;;;3.87;3.50;;;24.00;70.20;;;;;;4974516;28;20198;-70
2021/09/21 08:37:59;;;;;;;4.00;3.70;;;23.30;69.60;;;;;;4976685;28;20177;-68
2021/09/21 08:40:25;;;;;;;3.90;3.60;;;22.70;71.00;;;;;;4956050;28;20231;-68
2021/09/21 08:42:51;;;;;;;3.67;3.33;;;22.20;72.90;;;;;;4976868;28;20695;-69
2021/09/21 08:45:17;;;;;;;3.40;3.10;;;22.20;74.60;;;;;;4978994;28;20413;-67
2021/09/21 08:47:43;;;;;;;3.70;3.40;;;22.50;74.30;;;;;;4973189;28;20206;-69
2021/09/21 08:50:10;;;;;;;5.60;3.63;;;23.10;71.90;;;;;;4967454;28;20489;-73
2021/09/21 08:52:40;;;;;;;4.00;3.70;;;23.60;70.80;;;;;;4970392;28;20227;-70
2021/09/21 08:55:10;;;;;;;3.90;3.60;;;24.30;69.30;;;;;;4971558;28;20446;-72
2021/09/21 08:57:38;;;;;;;4.33;4.03;;;25.00;67.70;;;;;;4954517;28;20431;-68
2021/09/21 09:00:06;;;;;;;4.27;3.87;;;25.30;67.80;;;;;;4972116;28;20452;-73
2021/09/21 09:02:33;;;;;;;4.03;3.67;;;25.80;66.10;;;;;;4970644;28;20529;-69
2021/09/21 09:05:07;;;;;;;4.13;3.73;;;26.40;64.10;;;;;;4974014;28;20420;-71
2021/09/21 09:07:53;;;;;;;3.87;3.57;;;26.60;61.90;;;;;;4974580;28;20466;-71
2021/09/21 09:10:21;;;;;;;3.60;3.30;;;26.50;60.90;;;;;;4952641;28;20522;-70
2021/09/21 09:12:47;;;;;;;5.10;4.40;;;26.40;60.40;;;;;;4980804;28;20420;-69
2021/09/21 09:15:20;;;;;;;4.30;3.90;;;26.00;60.40;;;;;;4980333;28;20474;-69
2021/09/21 09:17:57;;;;;;;4.13;3.83;;;25.40;60.80;;;;;;4967323;28;20510;-68
2021/09/21 09:20:38;;;;;;;4.10;3.70;;;24.80;62.30;;;;;;4995038;28;20801;-68
2021/09/21 09:23:09;;;;;;;5.33;3.37;;;24.60;63.90;;;;;;4980599;28;20473;-65
2021/09/21 09:25:45;;;;;;;3.90;3.60;;;24.70;63.10;;;;;;4973174;28;20936;-68
2021/09/21 09:28:15;;;;;;;4.07;3.77;;;24.80;62.30;;;;;;4971467;28;20929;-68
2021/09/21 09:30:42;;;;;;;4.40;4.00;;;25.00;63.30;;;;;;4974532;28;20465;-68
2021/09/21 09:33:08;;;;;;;4.70;4.30;;;25.00;62.90;;;;;;4987371;28;20431;-66
2021/09/21 09:35:39;;;;;;;6.90;6.07;;;24.80;62.00;;;;;;4974338;28;20430;-68
2021/09/21 09:38:07;;;;;;;4.20;3.80;;;24.40;62.60;;;;;;4974347;28;20844;-67
2021/09/21 09:40:59;;;;;;;5.50;3.80;;;23.80;64.30;;;;;;4975793;28;20439;-67
2021/09/21 09:43:27;;;;;;;4.20;3.37;;;23.30;65.10;;;;;;4972287;28;21748;-66
2021/09/21 09:45:57;;;;;;;2.80;2.60;;;22.90;66.40;;;;;;4970930;28;20422;-69
2021/09/21 09:48:25;;;;;;;6.43;3.27;;;23.00;67.60;;;;;;4982993;28;20414;-66
2021/09/21 09:50:54;;;;;;;3.93;3.63;;;23.80;67.60;;;;;;4975540;28;20435;-70
2021/09/21 09:53:25;;;;;;;4.33;3.90;;;24.20;66.20;;;;;;4975645;28;20771;-70
2021/09/21 09:55:54;;;;;;;4.67;4.37;;;24.80;69.20;;;;;;4975681;28;20536;-71
2021/09/21 09:58:21;;;;;;;3.70;3.40;;;25.30;66.20;;;;;;4965848;28;20943;-68
2021/09/21 10:00:49;;;;;;;4.27;3.87;;;26.00;65.00;;;;;;4971453;28;20428;-69
2021/09/21 10:03:15;;;;;;;4.27;3.87;;;26.30;63.70;;;;;;4970912;28;20600;-67
2021/09/21 10:05:42;;;;;;;3.77;3.47;;;26.90;60.40;;;;;;4977490;28;20954;-68
2021/09/21 10:08:09;;;;;;;4.20;3.80;;;27.40;59.50;;;;;;4984223;28;20431;-69
2021/09/21 10:10:38;;;;;;;3.53;3.23;;;27.00;58.70;;;;;;4992606;28;20435;-69
2021/09/21 10:13:07;;;;;;;3.50;3.23;;;27.30;58.40;;;;;;4986681;28;20443;-69
2021/09/21 10:15:34;;;;;;;4.27;3.90;;;27.40;58.10;;;;;;4992689;28;20514;-69
2021/09/21 10:18:00;;;;;;;5.07;4.67;;;26.80;59.10;;;;;;4987171;28;20420;-69
2021/09/21 10:20:35;;;;;;;3.97;3.67;;;25.70;59.20;;;;;;4975055;28;20545;-69
2021/09/21 10:23:04;;;;;;;3.50;3.20;;;25.00;61.30;;;;;;4969959;28;20466;-69
2021/09/21 10:25:33;;;;;;;4.17;3.87;;;24.50;63.90;;;;;;4994805;28;20399;-70
2021/09/21 10:28:00;;;;;;;3.40;3.10;;;24.40;63.00;;;;;;4987784;28;20419;-71
2021/09/21 10:30:29;;;;;;;3.97;3.67;;;24.40;63.40;;;;;;4975297;28;20444;-69
2021/09/21 10:32:56;;;;;;;3.80;3.17;;;24.40;62.50;;;;;;4975126;28;20510;-70
2021/09/21 10:35:30;;;;;;;4.60;3.47;;;24.30;63.70;;;;;;4983722;28;20429;-69
2021/09/21 10:38:11;;;;;;;4.93;4.30;;;24.40;63.80;;;;;;4982941;28;20416;-66
2021/09/21 10:40:39;;;;;;;5.00;3.70;;;24.60;63.30;;;;;;4957508;28;20454;-66
2021/09/21 10:43:32;;;;;;;4.40;4.00;;;24.60;63.60;;;;;;4974997;28;20462;-69
2021/09/21 10:46:05;;;;;;;4.60;3.53;;;24.50;64.70;;;;;;4976653;28;20393;-67
2021/09/21 10:48:36;;;;;;;3.60;3.30;;;24.60;64.20;;;;;;4991998;28;20449;-66
2021/09/21 10:51:03;;;;;;;4.23;3.80;;;24.90;66.30;;;;;;4992580;28;20438;-67
2021/09/21 10:53:29;;;;;;;4.17;3.77;;;24.90;64.50;;;;;;4988454;28;20985;-67
2021/09/21 10:56:03;;;;;;;3.60;3.30;;;24.60;64.40;;;;;;4974960;28;20411;-69
2021/09/21 10:58:29;;;;;;;3.80;3.50;;;24.20;64.10;;;;;;4976483;28;20508;-66
2021/09/21 11:00:56;;;;;;;3.53;3.20;;;23.60;64.60;;;;;;4994215;28;20596;-67
2021/09/21 11:03:27;;;;;;;3.80;3.50;;;22.60;66.20;;;;;;4990408;28;20500;-69
2021/09/21 11:05:57;;;;;;;5.47;4.13;;;21.90;68.90;;;;;;4990401;28;20386;-68
2021/09/21 11:08:31;;;;;;;4.37;3.70;;;21.60;70.80;;;;;;4991395;28;20514;-67
2021/09/21 11:11:01;;;;;;;3.37;3.07;;;21.40;70.60;;;;;;4982727;28;20419;-66
2021/09/21 11:13:32;;;;;;;3.00;2.77;;;21.20;72.90;;;;;;4978255;28;20953;-68
2021/09/21 11:16:03;;;;;;;3.30;3.00;;;21.00;75.50;;;;;;4983471;28;20430;-67
2021/09/21 11:18:29;;;;;;;3.50;3.20;;;21.10;76.10;;;;;;4976549;28;20518;-68
2021/09/21 11:21:02;;;;;;;3.80;3.50;;;21.20;73.80;;;;;;4986091;28;20825;-69
2021/09/21 11:23:30;;;;;;;2.27;2.07;;;20.90;73.80;;;;;;4988725;28;20431;-68
2021/09/21 11:26:00;;;;;;;2.73;2.53;;;20.70;74.30;;;;;;4982229;28;20467;-68
2021/09/21 11:28:28;;;;;;;7.20;3.20;;;20.60;73.90;;;;;;4965683;28;20401;-68
2021/09/21 11:30:56;;;;;;;3.00;2.80;;;20.50;72.90;;;;;;4970577;28;20422;-69
2021/09/21 11:33:27;;;;;;;4.13;3.30;;;20.40;76.50;;;;;;4968580;28;20831;-69
2021/09/21 11:35:59;;;;;;;3.57;3.00;;;20.30;74.60;;;;;;4973331;28;20398;-67
2021/09/21 11:38:29;;;;;;;4.70;3.97;;;20.20;75.70;;;;;;4965365;28;20415;-66
2021/09/21 11:40:55;;;;;;;3.77;3.13;;;19.90;75.30;;;;;;4946850;28;20403;-70
2021/09/21 11:43:21;;;;;;;3.03;2.83;;;19.70;78.60;;;;;;4967727;28;20478;-68
2021/09/21 11:45:49;;;;;;;2.93;2.73;;;19.70;81.60;;;;;;4970278;28;20424;-71
2021/09/21 11:48:16;;;;;;;3.43;3.13;;;19.70;78.50;;;;;;4968710;28;20419;-68
2021/09/21 11:50:44;;;;;;;3.07;2.87;;;19.80;77.30;;;;;;4978362;28;20432;-71
2021/09/21 11:53:15;;;;;;;5.27;3.87;;;19.70;78.20;;;;;;4975206;28;20415;-66
2021/09/21 11:55:44;;;;;;;3.70;3.40;;;19.70;79.80;;;;;;4973745;28;20386;-71
2021/09/21 11:58:12;;;;;;;3.10;2.80;;;19.70;77.40;;;;;;4975376;28;20459;-68
2021/09/21 12:00:39;;;;;;;3.70;3.27;;;19.60;76.60;;;;;;4965288;28;20398;-70
2021/09/21 12:03:13;;;;;;;3.83;3.10;;;19.30;76.90;;;;;;4948924;28;20494;-69
2021/09/21 12:05:41;;;;;;;3.53;3.13;;;19.00;78.30;;;;;;4967370;28;20445;-69
2021/09/21 12:08:16;;;;;;;3.57;3.10;;;18.90;81.50;;;;;;4962637;28;20390;-71
2021/09/21 12:10:56;;;;;;;3.10;2.90;;;18.80;79.70;;;;;;4956632;28;20416;-68
2021/09/21 12:13:24;;;;;;;3.50;3.20;;;18.90;81.20;;;;;;4966853;28;20909;-68
2021/09/21 12:16:10;;;;;;;3.37;3.00;;;18.90;81.40;;;;;;4970626;28;20415;-70
2021/09/21 12:18:36;;;;;;;4.00;3.57;;;18.90;78.90;;;;;;4946565;28;20530;-69
2021/09/21 12:21:07;;;;;;;4.50;3.80;;;18.60;81.20;;;;;;4968830;28;20744;-70
2021/09/21 12:23:35;;;;;;;4.90;3.30;;;18.50;80.70;;;;;;4977936;28;20812;-68
2021/09/21 12:26:03;;;;;;;3.00;2.80;;;18.50;81.10;;;;;;4983584;28;20422;-68
2021/09/21 12:28:38;;;;;;;3.87;3.53;;;18.50;80.70;;;;;;4985588;28;20415;-68
2021/09/21 12:31:20;;;;;;;4.20;3.20;;;18.50;81.00;;;;;;4976806;28;20498;-70
2021/09/21 12:33:47;;;;;;;3.80;2.70;;;18.40;80.50;;;;;;4969254;28;20424;-70
2021/09/21 12:36:25;;;;;;;3.07;2.83;;;18.30;83.70;;;;;;4973016;28;20834;-68
2021/09/21 12:39:02;;;;;;;3.30;2.80;;;18.20;85.60;;;;;;4969251;28;20430;-68
2021/09/21 12:41:35;;;;;;;3.93;3.23;;;18.30;87.50;;;;;;4970087;28;20529;-67
2021/09/21 12:44:06;;;;;;;4.90;3.50;;;18.40;86.70;;;;;;4974231;28;20398;-67
2021/09/21 12:46:32;;;;;;;3.27;2.97;;;18.50;85.90;;;;;;4952194;28;20443;-68
2021/09/21 12:48:59;;;;;;;3.67;3.17;;;18.60;85.80;;;;;;4974420;28;20443;-70
2021/09/21 12:51:34;;;;;;;3.30;2.83;;;18.70;86.30;;;;;;4994290;28;20443;-70
2021/09/21 12:54:01;;;;;;;5.13;3.93;;;18.80;84.30;;;;;;4976957;28;20764;-70
2021/09/21 12:56:29;;;;;;;5.20;4.03;;;18.90;83.30;;;;;;4976458;28;20431;-71
2021/09/21 12:59:03;;;;;;;3.67;3.37;;;19.00;86.60;;;;;;4974817;28;20453;-69